createdAt,value
2023-03-27T00:02:11.793Z,7.85
2023-03-27T00:07:15.167Z,7.77
2023-03-27T00:12:17.227Z,7.72
2023-03-27T00:17:19.751Z,7.44
2023-03-27T00:22:21.789Z,7.24
2023-03-27T00:27:25.215Z,7.03
2023-03-27T00:32:27.348Z,6.83
2023-03-27T00:37:29.605Z,6.71
2023-03-27T00:42:31.737Z,6.64
2023-03-27T00:47:37.568Z,6.71
2023-03-27T00:52:42.576Z,6.71
2023-03-27T00:57:50.058Z,6.80
2023-03-27T01:02:52.249Z,6.72
2023-03-27T01:08:01.045Z,6.77
2023-03-27T01:13:07.374Z,6.84
2023-03-27T01:18:53.869Z,7.04
2023-03-27T01:24:26.838Z,7.06
2023-03-27T01:29:48.461Z,6.96
2023-03-27T01:35:29.091Z,7.00
2023-03-27T01:40:36.770Z,6.93
2023-03-27T01:45:54.826Z,7.04
2023-03-27T01:51:03.663Z,7.01
2023-03-27T01:56:26.680Z,7.13
2023-03-27T02:01:38.872Z,7.17
2023-03-27T02:06:45.931Z,7.11
2023-03-27T02:11:57.010Z,7.17
2023-03-27T02:17:03.730Z,7.16
2023-03-27T02:22:05.888Z,7.09
2023-03-27T02:27:22.351Z,7.05
2023-03-27T02:32:27.490Z,7.01
2023-03-27T02:37:58.462Z,6.98
2023-03-27T02:43:39.043Z,7.05
2023-03-27T02:48:54.990Z,7.09
2023-03-27T02:54:06.659Z,7.11
2023-03-27T02:59:16.198Z,7.10
2023-03-27T03:04:22.662Z,6.94
2023-03-27T03:09:44.687Z,6.94
2023-03-27T03:14:47.224Z,6.81
2023-03-27T03:19:49.948Z,6.71
2023-03-27T03:24:52.011Z,6.57
2023-03-27T03:29:56.862Z,6.44
2023-03-27T03:35:02.994Z,6.28
2023-03-27T03:40:12.068Z,6.25
2023-03-27T03:45:19.269Z,6.09
2023-03-27T03:50:21.546Z,5.99
2023-03-27T03:55:25.790Z,5.99
2023-03-27T04:00:28.544Z,6.02
2023-03-27T04:05:32.579Z,5.97
2023-03-27T04:10:39.152Z,6.06
2023-03-27T04:15:47.795Z,5.98
2023-03-27T04:20:55.310Z,5.93
2023-03-27T04:26:01.626Z,6.01
2023-03-27T04:31:21.683Z,6.64
2023-03-27T04:36:50.868Z,6.53
2023-03-27T04:41:58.460Z,6.54
2023-03-27T04:47:08.653Z,6.75
2023-03-27T04:52:14.431Z,6.97
2023-03-27T04:57:19.383Z,7.24
2023-03-27T05:02:23.764Z,7.47
2023-03-27T05:07:32.926Z,7.66
2023-03-27T05:12:37.125Z,7.84
2023-03-27T05:17:41.875Z,8.00
2023-03-27T05:22:45.312Z,8.01
2023-03-27T05:28:03.929Z,7.99
2023-03-27T05:33:09.936Z,7.98
2023-03-27T05:38:13.543Z,7.82
2023-03-27T05:43:22.833Z,7.75
2023-03-27T05:48:25.077Z,7.78
2023-03-27T05:53:28.983Z,7.84
2023-03-27T05:59:10.277Z,8.09
2023-03-27T06:04:13.200Z,7.98
2023-03-27T06:09:27.813Z,8.01
2023-03-27T06:14:56.349Z,8.09
2023-03-27T06:20:13.041Z,8.21
2023-03-27T06:25:17.919Z,8.31
2023-03-27T06:30:40.490Z,8.48
2023-03-27T06:36:21.484Z,8.64
2023-03-27T06:41:25.925Z,8.19
2023-03-27T06:46:45.809Z,8.16
2023-03-27T06:51:52.433Z,8.01
2023-03-27T06:56:56.471Z,7.97
2023-03-27T07:01:58.882Z,7.97
2023-03-27T07:07:29.736Z,7.95
2023-03-27T07:12:31.799Z,8.12
2023-03-27T07:17:47.660Z,8.47
2023-03-27T07:22:53.667Z,8.82
2023-03-27T07:28:14.005Z,8.95
2023-03-27T07:33:16.330Z,8.92
2023-03-27T07:38:18.653Z,8.84
2023-03-27T07:43:41.256Z,8.85
2023-03-27T07:48:44.691Z,9.01
2023-03-27T07:53:56.823Z,9.21
2023-03-27T07:59:07.615Z,9.41
2023-03-27T08:04:10.252Z,9.65
2023-03-27T08:09:15.292Z,9.93
2023-03-27T08:14:26.342Z,10.00
2023-03-27T08:19:33.583Z,10.30
2023-03-27T08:24:36.189Z,10.41
2023-03-27T08:29:58.462Z,10.33
2023-03-27T08:35:01.040Z,10.21
2023-03-27T08:40:08.955Z,10.12
2023-03-27T08:45:32.238Z,10.31
2023-03-27T08:50:44.176Z,10.19
2023-03-27T08:55:52.530Z,10.31
2023-03-27T09:01:46.988Z,10.73
2023-03-27T09:07:11.714Z,11.00
2023-03-27T09:12:49.834Z,13.64
2023-03-27T09:18:01.761Z,14.66
2023-03-27T09:23:19.834Z,15.58
2023-03-27T09:28:51.704Z,16.85
2023-03-27T09:34:03.014Z,17.02
2023-03-27T09:39:08.278Z,16.07
2023-03-27T09:44:25.670Z,15.63
2023-03-27T09:49:31.528Z,14.62
2023-03-27T09:54:56.177Z,15.06
2023-03-27T10:00:25.097Z,14.78
2023-03-27T10:05:30.272Z,14.16
2023-03-27T10:10:34.888Z,14.49
2023-03-27T10:15:41.299Z,17.09
2023-03-27T10:20:56.752Z,19.69
2023-03-27T10:26:04.493Z,19.73
2023-03-27T10:31:29.800Z,20.16
2023-03-27T10:36:39.328Z,19.49
2023-03-27T10:41:48.674Z,19.87
2023-03-27T10:46:53.160Z,19.17
2023-03-27T10:52:19.511Z,18.27
2023-03-27T10:57:47.880Z,17.49
2023-03-27T11:03:15.840Z,17.60
2023-03-27T11:08:47.202Z,19.34
2023-03-27T11:13:49.565Z,20.38
2023-03-27T11:19:08.382Z,20.77
2023-03-27T11:24:38.671Z,20.58
2023-03-27T11:30:16.430Z,20.30
2023-03-27T11:35:37.007Z,18.72
2023-03-27T11:41:06.249Z,17.16
2023-03-27T11:46:23.780Z,15.93
2023-03-27T11:51:26.315Z,14.68
2023-03-27T11:56:51.636Z,13.87
2023-03-27T12:02:06.631Z,13.13
2023-03-27T12:07:36.955Z,13.00
2023-03-27T12:12:45.802Z,12.62
2023-03-27T12:18:35.883Z,12.60
2023-03-27T12:24:14.627Z,12.45
2023-03-27T12:29:58.325Z,12.15
2023-03-27T12:35:10.758Z,11.65
2023-03-27T12:40:39.940Z,11.81
2023-03-27T12:46:30.344Z,11.84
2023-03-27T12:51:51.145Z,11.54
2023-03-27T12:57:20.736Z,11.36
2023-03-27T13:02:42.988Z,11.47
2023-03-27T13:08:01.289Z,11.08
2023-03-27T13:13:41.468Z,10.86
2023-03-27T13:19:01.843Z,11.16
2023-03-27T13:24:23.833Z,11.18
2023-03-27T13:29:32.268Z,10.72
2023-03-27T13:34:41.800Z,10.74
2023-03-27T13:39:55.703Z,10.77
2023-03-27T13:45:15.439Z,10.77
2023-03-27T13:50:52.263Z,10.70
2023-03-27T13:56:13.717Z,10.86
2023-03-27T14:02:02.644Z,10.68
2023-03-27T14:07:14.520Z,10.77
2023-03-27T14:12:46.027Z,11.12
2023-03-27T14:18:16.307Z,10.70
2023-03-27T14:23:25.766Z,10.54
2023-03-27T14:28:42.396Z,10.41
2023-03-27T14:34:14.587Z,10.60
2023-03-27T14:39:24.596Z,10.46
2023-03-27T14:44:34.000Z,10.34
2023-03-27T14:49:50.869Z,10.42
2023-03-27T14:55:08.960Z,10.31
2023-03-27T15:00:24.647Z,10.34
2023-03-27T15:05:26.786Z,10.17
2023-03-27T15:10:37.383Z,10.14
2023-03-27T15:15:44.355Z,10.11
2023-03-27T15:20:47.302Z,10.05
2023-03-27T15:25:57.878Z,10.06
2023-03-27T15:31:03.505Z,9.90
2023-03-27T15:36:11.236Z,9.80
2023-03-27T15:41:16.346Z,9.75
2023-03-27T15:46:20.239Z,9.59
2023-03-27T15:51:22.264Z,9.52
2023-03-27T15:56:34.175Z,9.83
2023-03-27T16:01:52.891Z,9.44
2023-03-27T16:07:11.036Z,9.40
2023-03-27T16:12:16.336Z,9.36
2023-03-27T16:17:38.334Z,9.44
2023-03-27T16:22:40.626Z,9.82
2023-03-27T16:27:46.048Z,9.86
2023-03-27T16:32:48.183Z,9.36
2023-03-27T16:37:50.409Z,9.33
2023-03-27T16:42:52.409Z,9.31
2023-03-27T16:47:54.776Z,9.63
2023-03-27T16:52:57.932Z,9.15
2023-03-27T16:58:00.055Z,8.97
2023-03-27T17:03:02.302Z,8.96
2023-03-27T17:08:06.726Z,8.96
2023-03-27T17:13:09.603Z,8.94
2023-03-27T17:18:11.677Z,8.84
2023-03-27T17:23:13.874Z,8.82
2023-03-27T17:28:16.261Z,8.93
2023-03-27T17:33:18.350Z,8.93
2023-03-27T17:38:22.672Z,8.90
2023-03-27T17:43:24.859Z,8.80
2023-03-27T17:48:27.026Z,8.77
2023-03-27T17:53:29.540Z,8.88
2023-03-27T17:58:34.172Z,8.95
2023-03-27T18:03:36.949Z,9.01
2023-03-27T18:08:39.421Z,8.94
2023-03-27T18:13:42.051Z,8.87
2023-03-27T18:18:44.175Z,8.87
2023-03-27T18:23:46.940Z,8.82
2023-03-27T18:28:49.182Z,8.79
2023-03-27T18:33:52.643Z,8.78
2023-03-27T18:38:56.557Z,8.76
2023-03-27T18:43:58.804Z,8.79
2023-03-27T18:49:10.212Z,8.76
2023-03-27T18:54:16.291Z,8.79
2023-03-27T18:59:19.494Z,8.79
2023-03-27T19:04:21.740Z,8.77
2023-03-27T19:09:31.214Z,8.60
2023-03-27T19:14:42.788Z,8.66
2023-03-27T19:20:10.120Z,8.72
2023-03-27T19:25:25.897Z,8.71
2023-03-27T19:30:28.802Z,8.68
2023-03-27T19:35:31.209Z,8.68
2023-03-27T19:40:33.356Z,8.61
2023-03-27T19:45:35.441Z,8.58
2023-03-27T19:50:37.446Z,8.60
2023-03-27T19:55:49.415Z,8.90
2023-03-27T20:00:53.784Z,8.56
2023-03-27T20:06:06.304Z,8.53
2023-03-27T20:11:09.337Z,8.47
2023-03-27T20:16:14.944Z,8.35
2023-03-27T20:21:25.726Z,8.40
2023-03-27T20:26:29.731Z,8.29
2023-03-27T20:31:40.908Z,8.28
2023-03-27T20:36:43.418Z,8.28
2023-03-27T20:42:04.992Z,8.28
2023-03-27T20:47:15.008Z,8.25
2023-03-27T20:52:22.887Z,8.23
2023-03-27T20:57:25.162Z,8.28
2023-03-27T21:02:27.385Z,8.28
2023-03-27T21:07:34.235Z,8.23
2023-03-27T21:12:36.966Z,7.96
2023-03-27T21:17:41.492Z,7.73
2023-03-27T21:22:43.842Z,7.52
2023-03-27T21:27:45.882Z,7.39
2023-03-27T21:32:49.200Z,7.28
2023-03-27T21:37:51.416Z,7.17
2023-03-27T21:42:53.652Z,7.03
2023-03-27T21:47:55.809Z,6.94
2023-03-27T21:52:57.868Z,6.86
2023-03-27T21:58:00.110Z,6.81
2023-03-27T22:03:02.975Z,6.77
2023-03-27T22:08:05.699Z,6.69
2023-03-27T22:13:07.823Z,6.63
2023-03-27T22:18:10.037Z,6.57
2023-03-27T22:23:12.360Z,6.48
2023-03-27T22:28:14.434Z,6.44
2023-03-27T22:33:16.589Z,6.36
2023-03-27T22:38:18.789Z,6.30
2023-03-27T22:43:22.779Z,6.22
2023-03-27T22:48:25.430Z,6.17
2023-03-27T22:53:27.764Z,6.10
2023-03-27T22:58:31.008Z,6.05
2023-03-27T23:03:33.551Z,6.01
2023-03-27T23:08:35.855Z,5.95
2023-03-27T23:13:37.913Z,5.97
2023-03-27T23:18:40.368Z,5.97
2023-03-27T23:23:42.534Z,5.88
2023-03-27T23:28:45.326Z,5.77
2023-03-27T23:33:49.329Z,5.72
2023-03-27T23:38:52.684Z,5.65
2023-03-27T23:43:54.751Z,5.54
2023-03-27T23:48:57.401Z,5.47
2023-03-27T23:53:59.428Z,5.39
2023-03-27T23:59:01.671Z,5.32
